sensor_id;sensor_type;location;lat;lon;timestamp;pressure;altitude;pressure_sealevel;temperature;humidity
22259;BME280;11298;46.034;14.496;2022-08-19T00:01:59;97655.22;;;21.79;83.33
22259;BME280;11298;46.034;14.496;2022-08-19T00:04:32;97660.16;;;21.82;83.26
22259;BME280;11298;46.034;14.496;2022-08-19T00:07:05;97670.50;;;21.90;82.76
22259;BME280;11298;46.034;14.496;2022-08-19T00:09:34;97673.19;;;21.95;82.68
22259;BME280;11298;46.034;14.496;2022-08-19T00:12:02;97656.63;;;21.95;82.73
22259;BME280;11298;46.034;14.496;2022-08-19T00:14:31;97638.06;;;21.82;82.92
22259;BME280;11298;46.034;14.496;2022-08-19T00:17:03;97634.16;;;21.83;83.29
22259;BME280;11298;46.034;14.496;2022-08-19T00:19:31;97616.66;;;21.87;82.83
22259;BME280;11298;46.034;14.496;2022-08-19T00:22:03;97607.13;;;21.80;82.97
22259;BME280;11298;46.034;14.496;2022-08-19T00:24:35;97645.03;;;21.93;82.53
22259;BME280;11298;46.034;14.496;2022-08-19T00:27:08;97626.69;;;22.02;82.07
22259;BME280;11298;46.034;14.496;2022-08-19T00:29:53;97624.19;;;22.00;82.28
22259;BME280;11298;46.034;14.496;2022-08-19T00:32:27;97623.00;;;22.06;82.33
22259;BME280;11298;46.034;14.496;2022-08-19T00:34:56;97621.38;;;22.19;81.80
22259;BME280;11298;46.034;14.496;2022-08-19T00:37:27;97629.00;;;22.27;81.30
22259;BME280;11298;46.034;14.496;2022-08-19T00:39:57;97614.56;;;22.30;80.91
22259;BME280;11298;46.034;14.496;2022-08-19T00:42:26;97596.31;;;22.29;80.70
22259;BME280;11298;46.034;14.496;2022-08-19T00:44:55;97580.34;;;22.13;81.23
22259;BME280;11298;46.034;14.496;2022-08-19T00:47:23;97595.91;;;22.22;80.82
22259;BME280;11298;46.034;14.496;2022-08-19T00:49:55;97617.41;;;22.25;80.66
22259;BME280;11298;46.034;14.496;2022-08-19T00:52:33;97622.19;;;22.06;81.24
22259;BME280;11298;46.034;14.496;2022-08-19T00:55:05;97620.56;;;22.05;81.65
22259;BME280;11298;46.034;14.496;2022-08-19T00:57:40;97625.34;;;21.81;82.80
22259;BME280;11298;46.034;14.496;2022-08-19T01:00:14;97610.22;;;21.92;82.65
22259;BME280;11298;46.034;14.496;2022-08-19T01:02:45;97593.84;;;21.95;83.11
22259;BME280;11298;46.034;14.496;2022-08-19T01:05:19;97587.22;;;21.96;83.11
22259;BME280;11298;46.034;14.496;2022-08-19T01:07:50;97572.94;;;22.08;82.31
22259;BME280;11298;46.034;14.496;2022-08-19T01:10:22;97558.28;;;22.08;82.28
22259;BME280;11298;46.034;14.496;2022-08-19T01:12:54;97535.28;;;22.12;82.27
22259;BME280;11298;46.034;14.496;2022-08-19T01:15:26;97531.06;;;22.15;82.26
22259;BME280;11298;46.034;14.496;2022-08-19T01:17:59;97533.13;;;22.09;82.49
22259;BME280;11298;46.034;14.496;2022-08-19T01:20:29;97528.72;;;22.08;81.68
22259;BME280;11298;46.034;14.496;2022-08-19T01:22:58;97534.66;;;21.83;82.83
22259;BME280;11298;46.034;14.496;2022-08-19T01:25:46;97539.53;;;21.72;83.62
22259;BME280;11298;46.034;14.496;2022-08-19T01:28:22;97530.06;;;21.59;84.27
22259;BME280;11298;46.034;14.496;2022-08-19T01:31:06;97544.41;;;21.61;84.54
22259;BME280;11298;46.034;14.496;2022-08-19T01:33:36;97557.19;;;21.57;85.31
22259;BME280;11298;46.034;14.496;2022-08-19T01:36:13;97565.09;;;21.64;84.96
22259;BME280;11298;46.034;14.496;2022-08-19T01:38:43;97569.06;;;21.58;84.47
22259;BME280;11298;46.034;14.496;2022-08-19T01:41:12;97561.78;;;21.48;84.82
22259;BME280;11298;46.034;14.496;2022-08-19T01:43:41;97564.81;;;21.28;85.62
22259;BME280;11298;46.034;14.496;2022-08-19T01:46:32;97557.13;;;21.25;85.48
22259;BME280;11298;46.034;14.496;2022-08-19T01:49:23;97548.31;;;21.23;85.69
22259;BME280;11298;46.034;14.496;2022-08-19T01:51:54;97541.50;;;21.15;85.45
22259;BME280;11298;46.034;14.496;2022-08-19T01:54:23;97541.44;;;21.01;86.39
22259;BME280;11298;46.034;14.496;2022-08-19T01:57:06;97539.72;;;21.05;86.68
22259;BME280;11298;46.034;14.496;2022-08-19T01:59:35;97548.47;;;21.13;87.43
22259;BME280;11298;46.034;14.496;2022-08-19T02:02:05;97571.13;;;21.10;87.42
22259;BME280;11298;46.034;14.496;2022-08-19T02:04:43;97607.91;;;21.05;87.61
22259;BME280;11298;46.034;14.496;2022-08-19T02:07:10;97657.78;;;21.14;87.02
22259;BME280;11298;46.034;14.496;2022-08-19T02:09:37;97739.13;;;21.21;87.46
22259;BME280;11298;46.034;14.496;2022-08-19T02:12:08;97833.66;;;21.13;88.29
22259;BME280;11298;46.034;14.496;2022-08-19T02:14:45;97914.75;;;20.83;91.64
22259;BME280;11298;46.034;14.496;2022-08-19T02:17:13;97898.03;;;20.74;90.63
22259;BME280;11298;46.034;14.496;2022-08-19T02:19:41;97876.91;;;20.89;87.87
22259;BME280;11298;46.034;14.496;2022-08-19T02:22:08;97838.31;;;20.84;87.62
22259;BME280;11298;46.034;14.496;2022-08-19T02:24:38;97803.91;;;20.76;88.47
22259;BME280;11298;46.034;14.496;2022-08-19T02:27:07;97797.22;;;20.82;88.18
22259;BME280;11298;46.034;14.496;2022-08-19T02:29:36;97786.78;;;20.79;85.72
22259;BME280;11298;46.034;14.496;2022-08-19T02:32:03;97783.63;;;20.91;86.66
22259;BME280;11298;46.034;14.496;2022-08-19T02:34:31;97777.28;;;20.90;86.13
22259;BME280;11298;46.034;14.496;2022-08-19T02:37:02;97753.78;;;20.93;85.69
22259;BME280;11298;46.034;14.496;2022-08-19T02:39:30;97751.06;;;20.88;82.50
22259;BME280;11298;46.034;14.496;2022-08-19T02:41:58;97782.53;;;20.87;82.76
22259;BME280;11298;46.034;14.496;2022-08-19T02:44:29;97825.09;;;20.81;80.99
22259;BME280;11298;46.034;14.496;2022-08-19T02:46:58;97838.38;;;20.79;79.93
22259;BME280;11298;46.034;14.496;2022-08-19T02:49:26;97854.44;;;20.71;78.42
22259;BME280;11298;46.034;14.496;2022-08-19T02:51:54;97876.09;;;20.88;78.89
22259;BME280;11298;46.034;14.496;2022-08-19T02:54:26;97835.72;;;20.97;79.81
22259;BME280;11298;46.034;14.496;2022-08-19T02:56:59;97795.88;;;21.08;81.36
22259;BME280;11298;46.034;14.496;2022-08-19T02:59:31;97877.03;;;21.07;81.26
22259;BME280;11298;46.034;14.496;2022-08-19T03:02:00;97917.13;;;20.61;83.57
22259;BME280;11298;46.034;14.496;2022-08-19T03:04:27;97889.56;;;20.61;83.77
22259;BME280;11298;46.034;14.496;2022-08-19T03:06:59;97846.50;;;20.65;83.56
22259;BME280;11298;46.034;14.496;2022-08-19T03:09:37;97821.50;;;20.80;84.19
22259;BME280;11298;46.034;14.496;2022-08-19T03:12:10;97828.59;;;20.91;83.42
22259;BME280;11298;46.034;14.496;2022-08-19T03:14:37;97802.09;;;20.90;83.67
22259;BME280;11298;46.034;14.496;2022-08-19T03:17:05;97810.31;;;21.00;84.87
22259;BME280;11298;46.034;14.496;2022-08-19T03:19:33;97789.81;;;21.06;84.97
22259;BME280;11298;46.034;14.496;2022-08-19T03:22:04;97758.16;;;20.99;84.55
22259;BME280;11298;46.034;14.496;2022-08-19T03:24:31;97769.53;;;20.92;83.66
22259;BME280;11298;46.034;14.496;2022-08-19T03:27:01;97761.28;;;20.87;84.16
22259;BME280;11298;46.034;14.496;2022-08-19T03:29:32;97747.94;;;20.99;84.86
22259;BME280;11298;46.034;14.496;2022-08-19T03:32:10;97740.84;;;20.88;83.73
22259;BME280;11298;46.034;14.496;2022-08-19T03:35:00;97727.78;;;20.99;85.07
22259;BME280;11298;46.034;14.496;2022-08-19T03:37:30;97730.16;;;21.11;84.13
22259;BME280;11298;46.034;14.496;2022-08-19T03:39:59;97708.66;;;21.07;84.21
22259;BME280;11298;46.034;14.496;2022-08-19T03:42:27;97711.41;;;21.07;84.11
22259;BME280;11298;46.034;14.496;2022-08-19T03:45:15;97707.75;;;21.12;82.30
22259;BME280;11298;46.034;14.496;2022-08-19T03:47:46;97706.03;;;21.16;82.19
22259;BME280;11298;46.034;14.496;2022-08-19T03:50:19;97683.09;;;21.21;82.39
22259;BME280;11298;46.034;14.496;2022-08-19T03:52:52;97664.63;;;21.16;83.76
22259;BME280;11298;46.034;14.496;2022-08-19T03:55:21;97666.25;;;21.17;84.01
22259;BME280;11298;46.034;14.496;2022-08-19T03:57:50;97682.31;;;21.15;82.94
22259;BME280;11298;46.034;14.496;2022-08-19T04:00:24;97695.91;;;21.12;83.85
22259;BME280;11298;46.034;14.496;2022-08-19T04:02:51;97709.75;;;21.06;84.56
22259;BME280;11298;46.034;14.496;2022-08-19T04:05:28;97712.63;;;20.96;85.07
22259;BME280;11298;46.034;14.496;2022-08-19T04:08:04;97715.81;;;20.56;86.18
22259;BME280;11298;46.034;14.496;2022-08-19T04:10:39;97727.09;;;20.59;86.63
22259;BME280;11298;46.034;14.496;2022-08-19T04:13:10;97752.81;;;20.50;87.30
22259;BME280;11298;46.034;14.496;2022-08-19T04:15:42;97710.50;;;20.30;88.09
22259;BME280;11298;46.034;14.496;2022-08-19T04:18:13;97668.72;;;20.47;88.50
22259;BME280;11298;46.034;14.496;2022-08-19T04:20:44;97694.59;;;20.51;88.19
22259;BME280;11298;46.034;14.496;2022-08-19T04:23:14;97724.84;;;20.27;89.50
22259;BME280;11298;46.034;14.496;2022-08-19T04:25:49;97725.59;;;20.04;90.77
22259;BME280;11298;46.034;14.496;2022-08-19T04:28:22;97723.63;;;20.10;90.78
22259;BME280;11298;46.034;14.496;2022-08-19T04:30:53;97742.22;;;20.28;90.74
22259;BME280;11298;46.034;14.496;2022-08-19T04:33:26;97757.97;;;20.22;90.15
22259;BME280;11298;46.034;14.496;2022-08-19T04:35:57;97750.19;;;20.29;89.96
22259;BME280;11298;46.034;14.496;2022-08-19T04:38:26;97750.09;;;20.45;89.50
22259;BME280;11298;46.034;14.496;2022-08-19T04:40:55;97768.81;;;20.48;88.33
22259;BME280;11298;46.034;14.496;2022-08-19T04:43:41;97784.91;;;20.40;89.38
22259;BME280;11298;46.034;14.496;2022-08-19T04:46:16;97779.31;;;20.46;88.78
22259;BME280;11298;46.034;14.496;2022-08-19T04:49:06;97769.31;;;20.55;88.90
22259;BME280;11298;46.034;14.496;2022-08-19T04:51:41;97776.72;;;20.59;87.93
22259;BME280;11298;46.034;14.496;2022-08-19T04:54:11;97790.47;;;20.64;88.12
22259;BME280;11298;46.034;14.496;2022-08-19T04:56:45;97808.34;;;20.72;88.56
22259;BME280;11298;46.034;14.496;2022-08-19T04:59:12;97877.28;;;20.43;89.33
22259;BME280;11298;46.034;14.496;2022-08-19T05:01:44;97905.22;;;20.16;90.55
22259;BME280;11298;46.034;14.496;2022-08-19T05:04:20;97895.97;;;19.92;93.03
22259;BME280;11298;46.034;14.496;2022-08-19T05:06:48;97870.06;;;19.88;93.86
22259;BME280;11298;46.034;14.496;2022-08-19T05:09:23;97867.31;;;19.93;94.61
22259;BME280;11298;46.034;14.496;2022-08-19T05:11:50;97867.28;;;19.98;95.15
22259;BME280;11298;46.034;14.496;2022-08-19T05:14:22;97867.00;;;19.99;95.13
22259;BME280;11298;46.034;14.496;2022-08-19T05:16:52;97876.09;;;20.00;95.30
22259;BME280;11298;46.034;14.496;2022-08-19T05:19:39;97877.75;;;19.96;96.09
22259;BME280;11298;46.034;14.496;2022-08-19T05:22:28;97855.72;;;19.96;97.64
22259;BME280;11298;46.034;14.496;2022-08-19T05:25:02;97844.59;;;20.11;97.08
22259;BME280;11298;46.034;14.496;2022-08-19T05:27:41;97813.59;;;20.34;96.38
22259;BME280;11298;46.034;14.496;2022-08-19T05:30:11;97831.69;;;20.51;95.52
22259;BME280;11298;46.034;14.496;2022-08-19T05:32:41;97837.94;;;20.66;94.42
22259;BME280;11298;46.034;14.496;2022-08-19T05:35:12;97820.94;;;20.83;93.43
22259;BME280;11298;46.034;14.496;2022-08-19T05:37:40;97818.88;;;20.99;92.97
22259;BME280;11298;46.034;14.496;2022-08-19T05:40:09;97806.34;;;21.12;91.76
22259;BME280;11298;46.034;14.496;2022-08-19T05:42:38;97797.38;;;21.25;90.65
22259;BME280;11298;46.034;14.496;2022-08-19T05:45:09;97790.16;;;21.29;89.02
22259;BME280;11298;46.034;14.496;2022-08-19T05:47:36;97777.94;;;21.35;88.60
22259;BME280;11298;46.034;14.496;2022-08-19T05:50:10;97778.84;;;21.49;88.49
22259;BME280;11298;46.034;14.496;2022-08-19T05:52:39;97772.97;;;21.56;88.82
22259;BME280;11298;46.034;14.496;2022-08-19T05:55:11;97773.38;;;21.68;89.22
22259;BME280;11298;46.034;14.496;2022-08-19T05:57:41;97765.78;;;21.79;88.54
22259;BME280;11298;46.034;14.496;2022-08-19T06:00:11;97755.84;;;21.78;87.71
22259;BME280;11298;46.034;14.496;2022-08-19T06:02:51;97758.38;;;21.93;86.71
22259;BME280;11298;46.034;14.496;2022-08-19T06:05:23;97732.00;;;22.00;86.05
22259;BME280;11298;46.034;14.496;2022-08-19T06:07:50;97719.19;;;22.10;84.70
22259;BME280;11298;46.034;14.496;2022-08-19T06:10:17;97715.63;;;22.23;84.75
22259;BME280;11298;46.034;14.496;2022-08-19T06:12:44;97719.16;;;22.28;83.89
22259;BME280;11298;46.034;14.496;2022-08-19T06:15:12;97720.03;;;22.43;84.45
22259;BME280;11298;46.034;14.496;2022-08-19T06:17:42;97712.84;;;22.42;83.27
22259;BME280;11298;46.034;14.496;2022-08-19T06:20:16;97706.22;;;22.24;81.93
22259;BME280;11298;46.034;14.496;2022-08-19T06:23:07;97700.88;;;22.14;82.20
22259;BME280;11298;46.034;14.496;2022-08-19T06:25:42;97703.75;;;22.22;80.70
22259;BME280;11298;46.034;14.496;2022-08-19T06:28:10;97715.97;;;22.02;81.91
22259;BME280;11298;46.034;14.496;2022-08-19T06:30:41;97714.44;;;21.91;81.74
22259;BME280;11298;46.034;14.496;2022-08-19T06:33:09;97695.34;;;22.14;82.32
22259;BME280;11298;46.034;14.496;2022-08-19T06:35:41;97693.81;;;22.21;82.82
22259;BME280;11298;46.034;14.496;2022-08-19T06:38:16;97709.28;;;22.22;81.96
22259;BME280;11298;46.034;14.496;2022-08-19T06:40:44;97711.59;;;21.96;82.08
22259;BME280;11298;46.034;14.496;2022-08-19T06:43:11;97708.25;;;21.81;82.83
22259;BME280;11298;46.034;14.496;2022-08-19T06:45:39;97684.34;;;21.90;83.69
22259;BME280;11298;46.034;14.496;2022-08-19T06:48:08;97677.28;;;22.02;83.25
22259;BME280;11298;46.034;14.496;2022-08-19T06:50:40;97685.38;;;21.94;84.23
22259;BME280;11298;46.034;14.496;2022-08-19T06:53:07;97682.88;;;21.79;84.58
22259;BME280;11298;46.034;14.496;2022-08-19T06:55:36;97679.19;;;21.64;84.75
22259;BME280;11298;46.034;14.496;2022-08-19T06:58:06;97671.97;;;21.68;85.35
22259;BME280;11298;46.034;14.496;2022-08-19T07:00:36;97664.72;;;21.72;85.67
22259;BME280;11298;46.034;14.496;2022-08-19T07:03:09;97653.50;;;22.01;84.71
22259;BME280;11298;46.034;14.496;2022-08-19T07:05:41;97675.69;;;22.15;82.40
22259;BME280;11298;46.034;14.496;2022-08-19T07:08:13;97688.06;;;21.99;84.28
22259;BME280;11298;46.034;14.496;2022-08-19T07:10:45;97679.34;;;21.92;84.74
22259;BME280;11298;46.034;14.496;2022-08-19T07:13:13;97665.91;;;22.04;83.23
22259;BME280;11298;46.034;14.496;2022-08-19T07:15:40;97663.81;;;22.15;82.68
22259;BME280;11298;46.034;14.496;2022-08-19T07:18:10;97653.50;;;22.01;84.54
22259;BME280;11298;46.034;14.496;2022-08-19T07:20:40;97640.22;;;22.03;84.68
22259;BME280;11298;46.034;14.496;2022-08-19T07:23:11;97632.97;;;22.21;84.56
22259;BME280;11298;46.034;14.496;2022-08-19T07:25:43;97640.31;;;22.45;82.28
22259;BME280;11298;46.034;14.496;2022-08-19T07:28:20;97647.28;;;22.56;79.75
22259;BME280;11298;46.034;14.496;2022-08-19T07:30:52;97644.53;;;22.69;79.14
22259;BME280;11298;46.034;14.496;2022-08-19T07:33:22;97648.81;;;22.81;78.58
22259;BME280;11298;46.034;14.496;2022-08-19T07:35:55;97652.69;;;22.93;77.59
22259;BME280;11298;46.034;14.496;2022-08-19T07:38:22;97659.56;;;22.82;77.73
22259;BME280;11298;46.034;14.496;2022-08-19T07:40:51;97666.38;;;22.71;79.97
22259;BME280;11298;46.034;14.496;2022-08-19T07:43:20;97650.38;;;22.68;79.82
22259;BME280;11298;46.034;14.496;2022-08-19T07:46:01;97634.91;;;22.67;80.83
22259;BME280;11298;46.034;14.496;2022-08-19T07:48:29;97640.34;;;22.72;78.91
22259;BME280;11298;46.034;14.496;2022-08-19T07:51:01;97648.19;;;22.84;77.72
22259;BME280;11298;46.034;14.496;2022-08-19T07:53:31;97634.63;;;23.10;77.44
22259;BME280;11298;46.034;14.496;2022-08-19T07:56:06;97636.25;;;23.24;73.93
22259;BME280;11298;46.034;14.496;2022-08-19T07:58:43;97641.78;;;23.24;74.06
22259;BME280;11298;46.034;14.496;2022-08-19T08:01:15;97643.06;;;23.18;75.00
22259;BME280;11298;46.034;14.496;2022-08-19T08:03:45;97651.44;;;23.27;75.10
22259;BME280;11298;46.034;14.496;2022-08-19T08:06:34;97651.22;;;23.37;72.72
22259;BME280;11298;46.034;14.496;2022-08-19T08:09:33;97664.47;;;23.54;71.95
22259;BME280;11298;46.034;14.496;2022-08-19T08:12:19;97676.06;;;23.56;72.07
22259;BME280;11298;46.034;14.496;2022-08-19T08:15:06;97666.28;;;23.58;71.62
22259;BME280;11298;46.034;14.496;2022-08-19T08:17:40;97668.22;;;23.71;72.48
22259;BME280;11298;46.034;14.496;2022-08-19T08:20:17;97660.94;;;23.98;73.15
22259;BME280;11298;46.034;14.496;2022-08-19T08:22:48;97669.44;;;24.01;71.50
22259;BME280;11298;46.034;14.496;2022-08-19T08:25:37;97687.31;;;23.73;71.81
22259;BME280;11298;46.034;14.496;2022-08-19T08:28:09;97654.63;;;23.84;71.96
22259;BME280;11298;46.034;14.496;2022-08-19T08:30:47;97630.63;;;24.01;73.11
22259;BME280;11298;46.034;14.496;2022-08-19T08:33:23;97689.75;;;23.88;72.36
22259;BME280;11298;46.034;14.496;2022-08-19T08:36:05;97665.97;;;23.60;72.11
22259;BME280;11298;46.034;14.496;2022-08-19T08:38:33;97647.94;;;23.85;71.77
22259;BME280;11298;46.034;14.496;2022-08-19T08:44:44;97684.22;;;23.75;71.26
22259;BME280;11298;46.034;14.496;2022-08-19T08:47:16;97676.81;;;23.84;70.71
22259;BME280;11298;46.034;14.496;2022-08-19T08:49:53;97676.03;;;23.69;71.11
22259;BME280;11298;46.034;14.496;2022-08-19T08:52:33;97666.66;;;23.79;70.70
22259;BME280;11298;46.034;14.496;2022-08-19T08:55:18;97664.31;;;23.95;69.69
22259;BME280;11298;46.034;14.496;2022-08-19T08:58:36;97669.25;;;23.98;69.31
22259;BME280;11298;46.034;14.496;2022-08-19T09:01:01;97674.69;;;24.03;68.41
22259;BME280;11298;46.034;14.496;2022-08-19T09:03:30;97689.53;;;23.85;69.18
22259;BME280;11298;46.034;14.496;2022-08-19T09:06:12;97688.53;;;23.81;69.43
22259;BME280;11298;46.034;14.496;2022-08-19T09:09:00;97680.22;;;24.03;69.07
22259;BME280;11298;46.034;14.496;2022-08-19T09:12:02;97689.03;;;24.41;68.13
22259;BME280;11298;46.034;14.496;2022-08-19T09:15:06;97688.84;;;24.37;66.14
22259;BME280;11298;46.034;14.496;2022-08-19T09:17:39;97686.25;;;24.72;66.22
22259;BME280;11298;46.034;14.496;2022-08-19T09:20:22;97681.19;;;24.96;62.30
22259;BME280;11298;46.034;14.496;2022-08-19T09:22:53;97674.84;;;25.04;61.62
22259;BME280;11298;46.034;14.496;2022-08-19T09:25:23;97673.47;;;25.24;61.95
22259;BME280;11298;46.034;14.496;2022-08-19T09:27:56;97666.63;;;25.39;61.50
22259;BME280;11298;46.034;14.496;2022-08-19T09:30:38;97667.13;;;25.50;59.41
22259;BME280;11298;46.034;14.496;2022-08-19T09:33:08;97685.34;;;25.64;62.07
22259;BME280;11298;46.034;14.496;2022-08-19T09:35:39;97677.84;;;25.91;61.51
22259;BME280;11298;46.034;14.496;2022-08-19T09:38:21;97694.53;;;25.82;58.91
22259;BME280;11298;46.034;14.496;2022-08-19T09:40:50;97691.03;;;25.59;58.72
22259;BME280;11298;46.034;14.496;2022-08-19T09:43:18;97684.34;;;25.60;59.40
22259;BME280;11298;46.034;14.496;2022-08-19T09:46:04;97689.41;;;25.58;58.16
22259;BME280;11298;46.034;14.496;2022-08-19T09:48:39;97680.06;;;25.54;58.88
22259;BME280;11298;46.034;14.496;2022-08-19T09:51:18;97679.78;;;25.64;60.19
22259;BME280;11298;46.034;14.496;2022-08-19T09:53:52;97674.72;;;25.75;60.29
22259;BME280;11298;46.034;14.496;2022-08-19T09:56:22;97673.44;;;25.90;58.62
22259;BME280;11298;46.034;14.496;2022-08-19T09:58:50;97661.81;;;25.88;58.13
22259;BME280;11298;46.034;14.496;2022-08-19T10:01:20;97655.59;;;25.91;60.11
22259;BME280;11298;46.034;14.496;2022-08-19T10:03:53;97653.13;;;26.15;60.22
22259;BME280;11298;46.034;14.496;2022-08-19T10:06:24;97658.22;;;26.30;57.44
22259;BME280;11298;46.034;14.496;2022-08-19T10:09:14;97657.72;;;26.11;56.65
22259;BME280;11298;46.034;14.496;2022-08-19T10:11:52;97654.28;;;26.14;56.90
22259;BME280;11298;46.034;14.496;2022-08-19T10:14:21;97650.34;;;26.24;56.52
22259;BME280;11298;46.034;14.496;2022-08-19T10:16:52;97647.53;;;26.50;56.77
22259;BME280;11298;46.034;14.496;2022-08-19T10:19:21;97634.31;;;26.85;56.81
22259;BME280;11298;46.034;14.496;2022-08-19T10:21:54;97631.50;;;27.31;57.65
22259;BME280;11298;46.034;14.496;2022-08-19T10:24:28;97635.94;;;28.03;56.77
22259;BME280;11298;46.034;14.496;2022-08-19T10:27:01;97631.63;;;28.72;53.98
22259;BME280;11298;46.034;14.496;2022-08-19T10:29:37;97644.75;;;29.29;54.13
22259;BME280;11298;46.034;14.496;2022-08-19T10:32:13;97638.22;;;29.61;49.72
22259;BME280;11298;46.034;14.496;2022-08-19T10:34:41;97640.38;;;29.80;50.69
22259;BME280;11298;46.034;14.496;2022-08-19T10:37:16;97629.38;;;30.12;49.15
22259;BME280;11298;46.034;14.496;2022-08-19T10:39:59;97636.88;;;29.83;47.68
22259;BME280;11298;46.034;14.496;2022-08-19T10:42:27;97633.31;;;29.71;46.83
22259;BME280;11298;46.034;14.496;2022-08-19T10:44:58;97631.16;;;29.92;49.33
22259;BME280;11298;46.034;14.496;2022-08-19T10:47:27;97626.94;;;30.10;48.65
22259;BME280;11298;46.034;14.496;2022-08-19T10:49:58;97622.03;;;30.07;48.20
22259;BME280;11298;46.034;14.496;2022-08-19T10:52:56;97615.72;;;29.70;49.07
22259;BME280;11298;46.034;14.496;2022-08-19T10:55:24;97604.28;;;29.63;49.31
22259;BME280;11298;46.034;14.496;2022-08-19T10:58:14;97619.78;;;29.60;49.53
22259;BME280;11298;46.034;14.496;2022-08-19T11:00:58;97622.03;;;29.55;49.22
22259;BME280;11298;46.034;14.496;2022-08-19T11:03:28;97606.53;;;29.21;48.21
22259;BME280;11298;46.034;14.496;2022-08-19T11:06:02;97598.84;;;29.06;49.40
22259;BME280;11298;46.034;14.496;2022-08-19T11:08:32;97598.38;;;28.91;49.98
22259;BME280;11298;46.034;14.496;2022-08-19T11:11:06;97598.22;;;28.76;50.74
22259;BME280;11298;46.034;14.496;2022-08-19T11:13:38;97610.19;;;28.64;50.26
22259;BME280;11298;46.034;14.496;2022-08-19T11:16:18;97604.31;;;28.32;51.25
22259;BME280;11298;46.034;14.496;2022-08-19T11:19:00;97606.63;;;28.43;51.51
22259;BME280;11298;46.034;14.496;2022-08-19T11:21:44;97622.06;;;28.61;53.38
22259;BME280;11298;46.034;14.496;2022-08-19T11:24:20;97631.78;;;28.88;51.73
22259;BME280;11298;46.034;14.496;2022-08-19T11:26:50;97619.09;;;28.90;51.20
22259;BME280;11298;46.034;14.496;2022-08-19T11:29:21;97619.66;;;28.72;51.48
22259;BME280;11298;46.034;14.496;2022-08-19T11:31:50;97624.81;;;28.49;52.96
22259;BME280;11298;46.034;14.496;2022-08-19T11:34:21;97624.13;;;28.52;53.30
22259;BME280;11298;46.034;14.496;2022-08-19T11:36:50;97622.38;;;28.92;52.55
22259;BME280;11298;46.034;14.496;2022-08-19T11:39:21;97616.19;;;29.35;53.35
22259;BME280;11298;46.034;14.496;2022-08-19T11:41:49;97603.69;;;29.70;47.49
22259;BME280;11298;46.034;14.496;2022-08-19T11:44:18;97605.59;;;29.93;45.85
22259;BME280;11298;46.034;14.496;2022-08-19T11:46:46;97604.91;;;30.24;48.89
22259;BME280;11298;46.034;14.496;2022-08-19T11:49:18;97602.56;;;29.98;47.05
22259;BME280;11298;46.034;14.496;2022-08-19T11:51:47;97609.13;;;30.18;48.33
22259;BME280;11298;46.034;14.496;2022-08-19T11:54:20;97604.47;;;30.66;48.12
22259;BME280;11298;46.034;14.496;2022-08-19T11:56:48;97615.16;;;30.92;45.20
22259;BME280;11298;46.034;14.496;2022-08-19T11:59:16;97620.69;;;30.73;44.20
22259;BME280;11298;46.034;14.496;2022-08-19T12:01:44;97625.94;;;30.46;42.93
22259;BME280;11298;46.034;14.496;2022-08-19T12:04:12;97638.31;;;30.17;43.96
22259;BME280;11298;46.034;14.496;2022-08-19T12:06:40;97636.03;;;29.95;43.98
22259;BME280;11298;46.034;14.496;2022-08-19T12:09:10;97639.53;;;30.04;46.55
22259;BME280;11298;46.034;14.496;2022-08-19T12:11:45;97639.75;;;30.11;45.52
22259;BME280;11298;46.034;14.496;2022-08-19T12:14:13;97647.69;;;30.09;46.11
22259;BME280;11298;46.034;14.496;2022-08-19T12:16:45;97643.94;;;29.65;45.73
22259;BME280;11298;46.034;14.496;2022-08-19T12:19:18;97632.63;;;29.25;45.69
22259;BME280;11298;46.034;14.496;2022-08-19T12:21:51;97615.84;;;29.13;46.32
22259;BME280;11298;46.034;14.496;2022-08-19T12:24:22;97605.91;;;28.79;46.18
22259;BME280;11298;46.034;14.496;2022-08-19T12:26:51;97614.09;;;28.84;46.86
22259;BME280;11298;46.034;14.496;2022-08-19T12:29:29;97640.59;;;28.78;46.81
22259;BME280;11298;46.034;14.496;2022-08-19T12:31:58;97694.03;;;28.43;48.38
22259;BME280;11298;46.034;14.496;2022-08-19T12:34:32;97686.28;;;27.27;51.12
22259;BME280;11298;46.034;14.496;2022-08-19T12:37:03;97681.88;;;26.71;53.43
22259;BME280;11298;46.034;14.496;2022-08-19T12:39:40;97697.50;;;26.20;56.82
22259;BME280;11298;46.034;14.496;2022-08-19T12:42:14;97711.06;;;25.30;65.09
22259;BME280;11298;46.034;14.496;2022-08-19T12:44:43;97718.69;;;24.85;70.66
22259;BME280;11298;46.034;14.496;2022-08-19T12:47:13;97691.75;;;24.55;73.33
22259;BME280;11298;46.034;14.496;2022-08-19T12:49:47;97691.47;;;24.43;76.67
22259;BME280;11298;46.034;14.496;2022-08-19T12:52:24;97679.88;;;24.41;77.12
22259;BME280;11298;46.034;14.496;2022-08-19T12:54:54;97669.91;;;24.39;78.47
22259;BME280;11298;46.034;14.496;2022-08-19T12:57:26;97681.38;;;24.47;80.10
22259;BME280;11298;46.034;14.496;2022-08-19T13:00:20;97679.88;;;24.41;80.58
22259;BME280;11298;46.034;14.496;2022-08-19T13:02:51;97658.31;;;24.37;80.39
22259;BME280;11298;46.034;14.496;2022-08-19T13:05:22;97634.28;;;24.64;82.14
22259;BME280;11298;46.034;14.496;2022-08-19T13:07:57;97635.34;;;25.16;80.47
22259;BME280;11298;46.034;14.496;2022-08-19T13:10:33;97642.19;;;25.93;81.25
22259;BME280;11298;46.034;14.496;2022-08-19T13:13:08;97661.47;;;26.50;74.11
22259;BME280;11298;46.034;14.496;2022-08-19T13:15:41;97668.56;;;26.85;71.71
22259;BME280;11298;46.034;14.496;2022-08-19T13:18:11;97651.53;;;26.95;70.61
22259;BME280;11298;46.034;14.496;2022-08-19T13:20:42;97655.16;;;26.79;68.07
22259;BME280;11298;46.034;14.496;2022-08-19T13:23:19;97652.00;;;26.33;69.66
22259;BME280;11298;46.034;14.496;2022-08-19T13:25:56;97665.25;;;25.76;74.24